Time;durP1;ratioP1;P1;durP2;ratioP2;P2;SDS_P1;SDS_P2;PMS_P1;PMS_P2;Temp;Humidity;BMP_temperature;BMP_pressure;BME280_temperature;BME280_humidity;BME280_pressure;Samples;Min_cycle;Max_cycle;Signal;HPM_P1;HPM_P2
2022/01/14 00:01:05;;;;;;;33.53;13.38;;;1.30;99.90;;;;;;4916353;28;20117;-84
2022/01/14 00:03:31;;;;;;;31.73;14.02;;;1.40;99.90;;;;;;4920594;28;20086;-84
2022/01/14 00:05:56;;;;;;;31.88;16.27;;;1.30;99.90;;;;;;4944806;28;20538;-84
2022/01/14 00:08:22;;;;;;;36.08;14.93;;;1.30;99.90;;;;;;4935059;28;20042;-84
2022/01/14 00:10:49;;;;;;;29.45;16.10;;;1.30;99.90;;;;;;4943749;28;20043;-84
2022/01/14 00:16:13;;;;;;;35.83;16.13;;;1.30;99.90;;;;;;4927212;28;20055;-85
2022/01/14 00:18:38;;;;;;;30.33;13.88;;;1.30;99.90;;;;;;4929553;28;20032;-84
2022/01/14 00:21:04;;;;;;;33.70;14.93;;;1.20;99.90;;;;;;4945135;28;20046;-84
2022/01/14 00:23:34;;;;;;;33.30;14.20;;;1.20;99.90;;;;;;4929717;28;20043;-84
2022/01/14 00:31:42;;;;;;;34.17;16.33;;;1.30;99.90;;;;;;4946115;28;20042;-84
2022/01/14 00:34:08;;;;;;;35.65;14.50;;;1.30;99.90;;;;;;4951297;28;20031;-85
2022/01/14 00:36:34;;;;;;;30.33;15.10;;;1.30;99.90;;;;;;4940542;28;20062;-84
2022/01/14 00:38:59;;;;;;;28.48;12.68;;;1.30;99.90;;;;;;4948194;28;20031;-84
2022/01/14 00:41:25;;;;;;;35.38;15.65;;;1.30;99.90;;;;;;4923074;28;20027;-84
2022/01/14 00:43:56;;;;;;;31.58;13.90;;;1.40;99.90;;;;;;4929738;28;20090;-85
2022/01/14 00:46:22;;;;;;;30.77;13.20;;;1.40;99.90;;;;;;4935263;28;20577;-84
2022/01/14 00:48:47;;;;;;;27.52;12.38;;;1.50;99.90;;;;;;4930164;28;20102;-84
2022/01/14 00:51:13;;;;;;;29.63;13.40;;;1.50;99.90;;;;;;4945173;28;20038;-84
2022/01/14 00:53:38;;;;;;;30.80;13.63;;;1.50;99.90;;;;;;4926966;28;20036;-84
2022/01/14 00:56:20;;;;;;;31.73;14.80;;;1.50;99.90;;;;;;4946773;28;20483;-84
2022/01/14 01:01:30;;;;;;;36.85;16.90;;;1.40;99.90;;;;;;4947386;28;20058;-84
2022/01/14 01:03:56;;;;;;;42.00;18.67;;;1.30;99.90;;;;;;4927547;28;20039;-84
2022/01/14 01:06:21;;;;;;;27.38;11.82;;;1.30;99.90;;;;;;4929506;28;20034;-84
2022/01/14 01:08:49;;;;;;;33.97;11.57;;;1.20;99.90;;;;;;4927113;28;20046;-84
2022/01/14 01:11:18;;;;;;;37.95;16.65;;;1.30;99.90;;;;;;4932111;28;20035;-84
2022/01/14 01:13:49;;;;;;;19.00;8.07;;;1.30;99.90;;;;;;4933802;28;20027;-84
2022/01/14 01:16:15;;;;;;;26.65;13.10;;;1.40;99.90;;;;;;4917699;28;20031;-84
2022/01/14 01:18:40;;;;;;;31.45;14.25;;;1.40;99.90;;;;;;4933703;28;20043;-84
2022/01/14 01:21:06;;;;;;;35.47;17.02;;;1.50;99.90;;;;;;4942253;28;20547;-84
2022/01/14 01:23:31;;;;;;;32.58;15.60;;;1.60;99.90;;;;;;4932096;28;20035;-84
2022/01/14 01:26:08;;;;;;;37.72;16.45;;;1.50;99.90;;;;;;4943678;28;20054;-84
2022/01/14 01:28:40;;;;;;;38.97;19.08;;;1.60;99.90;;;;;;4930449;28;20034;-84
2022/01/14 01:31:34;;;;;;;37.65;15.18;;;1.50;99.90;;;;;;4932405;28;20465;-84
2022/01/14 01:33:51;;;;;;;24.13;7.77;;;1.40;99.90;;;;;;4946645;28;20049;-84
2022/01/14 01:36:16;;;;;;;21.23;9.50;;;1.60;99.90;;;;;;4932126;28;20258;-84
2022/01/14 01:38:42;;;;;;;35.65;16.17;;;1.60;99.90;;;;;;4941826;28;20024;-84
2022/01/14 01:41:11;;;;;;;25.88;11.27;;;1.50;99.90;;;;;;4955946;28;20032;-84
2022/01/14 01:43:38;;;;;;;29.98;15.57;;;1.60;99.90;;;;;;4943338;28;20050;-84
2022/01/14 01:46:03;;;;;;;23.45;9.57;;;1.50;99.90;;;;;;4928715;28;20031;-84
2022/01/14 01:48:29;;;;;;;37.63;15.50;;;1.60;99.90;;;;;;4929468;28;20081;-84
2022/01/14 01:50:57;;;;;;;29.92;13.43;;;1.60;99.90;;;;;;4942392;28;20042;-84
2022/01/14 01:53:23;;;;;;;21.73;10.55;;;1.60;99.90;;;;;;4911012;28;20038;-85
2022/01/14 01:55:49;;;;;;;16.27;7.80;;;1.60;99.90;;;;;;4932760;28;20093;-84
2022/01/14 01:58:15;;;;;;;37.92;16.20;;;1.60;99.90;;;;;;4918117;28;20031;-84
2022/01/14 02:00:41;;;;;;;45.28;15.70;;;1.60;99.90;;;;;;4942202;28;20037;-84
2022/01/14 02:03:06;;;;;;;39.38;16.55;;;1.50;99.90;;;;;;4944643;28;20035;-84
2022/01/14 02:05:32;;;;;;;33.83;16.77;;;1.60;99.90;;;;;;4918415;28;20081;-85
2022/01/14 02:07:57;;;;;;;38.75;18.65;;;1.50;99.90;;;;;;4925346;28;20031;-84
2022/01/14 02:10:24;;;;;;;43.00;20.42;;;1.50;99.90;;;;;;4928917;28;20034;-84
2022/01/14 02:12:52;;;;;;;44.30;18.73;;;1.40;99.90;;;;;;4943500;28;20990;-84
2022/01/14 02:23:23;;;;;;;30.25;12.90;;;1.30;99.90;;;;;;4947430;28;20046;-84
2022/01/14 02:25:48;;;;;;;47.13;18.85;;;1.40;99.90;;;;;;4941093;28;20407;-84
2022/01/14 02:28:16;;;;;;;39.65;15.82;;;1.40;99.90;;;;;;4928376;28;20038;-84
2022/01/14 02:30:42;;;;;;;34.35;15.95;;;1.30;99.90;;;;;;4941724;28;20097;-84
2022/01/14 02:33:08;;;;;;;38.17;17.00;;;1.30;99.90;;;;;;4931275;28;20070;-84
2022/01/14 02:35:34;;;;;;;32.40;12.90;;;1.20;99.90;;;;;;4931937;28;20070;-84
2022/01/14 02:37:59;;;;;;;37.45;17.05;;;1.20;99.90;;;;;;4913364;28;20826;-84
2022/01/14 02:40:25;;;;;;;35.00;15.55;;;1.10;99.90;;;;;;4926055;28;20054;-84
2022/01/14 02:42:51;;;;;;;41.75;17.25;;;1.10;99.90;;;;;;4944384;28;20392;-85
2022/01/14 02:45:17;;;;;;;40.03;18.13;;;1.20;99.90;;;;;;4930109;28;20058;-84
2022/01/14 02:47:43;;;;;;;45.78;17.88;;;1.10;99.90;;;;;;4929991;28;20089;-84
2022/01/14 02:50:12;;;;;;;34.28;16.15;;;1.00;99.90;;;;;;4931454;28;20031;-84
2022/01/14 02:52:54;;;;;;;39.38;17.75;;;1.00;99.90;;;;;;4940457;28;20047;-85
2022/01/14 02:55:22;;;;;;;39.58;16.80;;;1.10;99.90;;;;;;4955491;28;20055;-84
2022/01/14 02:57:49;;;;;;;34.25;16.73;;;1.00;99.90;;;;;;4929044;28;20488;-85
2022/01/14 03:00:15;;;;;;;27.98;13.93;;;1.00;99.90;;;;;;4929215;28;20093;-85
2022/01/14 03:02:42;;;;;;;43.75;18.20;;;1.10;99.90;;;;;;4909213;28;20480;-85
2022/01/14 03:05:08;;;;;;;42.53;18.77;;;1.00;99.90;;;;;;4923722;28;20035;-84
2022/01/14 03:07:35;;;;;;;39.17;18.90;;;0.90;99.90;;;;;;4932761;28;20102;-84
2022/01/14 03:10:00;;;;;;;28.65;13.38;;;0.80;99.90;;;;;;4936342;28;20042;-84
2022/01/14 03:12:26;;;;;;;33.95;15.98;;;0.80;99.90;;;;;;4920558;28;20035;-85
2022/01/14 03:14:53;;;;;;;27.83;11.77;;;0.80;99.90;;;;;;4931686;28;20054;-85
2022/01/14 03:17:18;;;;;;;27.48;13.30;;;0.90;99.90;;;;;;4931853;28;20081;-84
2022/01/14 03:19:45;;;;;;;31.30;11.63;;;0.90;99.90;;;;;;4931042;28;25704;-84
2022/01/14 03:27:11;;;;;;;28.05;13.48;;;0.80;99.90;;;;;;4958366;28;20514;-87
2022/01/14 03:29:37;;;;;;;29.85;13.98;;;0.90;99.90;;;;;;4932669;28;20073;-87
2022/01/14 03:32:03;;;;;;;31.15;14.57;;;1.00;99.90;;;;;;4930913;28;20027;-87
2022/01/14 03:34:29;;;;;;;26.20;12.73;;;0.90;99.90;;;;;;4930726;28;20104;-87
2022/01/14 03:36:55;;;;;;;26.48;12.70;;;0.90;99.90;;;;;;4936126;28;20031;-85
2022/01/14 03:39:21;;;;;;;40.38;17.90;;;0.90;99.90;;;;;;4948967;28;20094;-84
2022/01/14 03:41:46;;;;;;;30.17;15.18;;;0.80;99.90;;;;;;4934405;28;20035;-85
2022/01/14 03:44:12;;;;;;;35.20;18.27;;;0.80;99.90;;;;;;4946019;28;20093;-85
2022/01/14 03:46:37;;;;;;;25.17;13.88;;;0.70;99.90;;;;;;4929122;28;20042;-84
2022/01/14 03:49:03;;;;;;;30.65;15.60;;;0.60;99.90;;;;;;4928070;28;20031;-84
2022/01/14 03:51:29;;;;;;;30.33;14.75;;;0.70;99.90;;;;;;4914195;28;20075;-84
2022/01/14 03:53:55;;;;;;;29.67;14.52;;;0.80;99.90;;;;;;4944090;28;20027;-84
2022/01/14 03:56:22;;;;;;;31.27;16.42;;;0.80;99.90;;;;;;4943261;28;20035;-84
2022/01/14 03:58:48;;;;;;;44.25;19.75;;;0.80;99.90;;;;;;4926393;28;20035;-84
2022/01/14 04:01:14;;;;;;;42.53;19.05;;;0.70;99.90;;;;;;4933285;28;20061;-85
2022/01/14 04:03:40;;;;;;;36.35;18.08;;;0.30;99.90;;;;;;4919758;28;20045;-84
2022/01/14 04:06:05;;;;;;;37.10;17.83;;;0.30;99.90;;;;;;4931335;28;20447;-84
2022/01/14 04:08:31;;;;;;;44.38;19.23;;;0.20;99.90;;;;;;4947149;28;20035;-85
2022/01/14 04:10:58;;;;;;;41.15;18.80;;;0.10;99.90;;;;;;4961078;28;20637;-84
2022/01/14 04:13:37;;;;;;;40.83;19.48;;;0.10;99.90;;;;;;4947014;28;20038;-85
2022/01/14 04:16:03;;;;;;;37.53;18.40;;;-0.10;99.90;;;;;;4949280;28;20046;-85
2022/01/14 04:18:29;;;;;;;40.28;19.35;;;0.10;99.90;;;;;;4915442;28;20031;-85
2022/01/14 04:20:54;;;;;;;40.92;18.70;;;0.00;99.90;;;;;;4933000;28;20122;-85
2022/01/14 04:23:23;;;;;;;44.97;19.55;;;0.00;99.90;;;;;;4917469;28;20039;-85
2022/01/14 04:25:53;;;;;;;40.50;18.48;;;0.10;99.90;;;;;;4934044;28;20407;-84
2022/01/14 04:28:23;;;;;;;41.88;18.98;;;0.00;99.90;;;;;;4932888;28;20039;-84
2022/01/14 04:30:54;;;;;;;50.50;21.50;;;-0.10;99.90;;;;;;4927992;28;20030;-84
2022/01/14 04:33:20;;;;;;;40.40;20.63;;;-0.10;99.90;;;;;;4930402;28;20123;-85
2022/01/14 04:35:45;;;;;;;50.28;24.88;;;-0.30;99.90;;;;;;4930749;28;20145;-84
2022/01/14 04:38:11;;;;;;;44.20;21.45;;;-0.40;99.90;;;;;;4947936;28;20550;-84
2022/01/14 04:40:36;;;;;;;54.75;23.40;;;-0.60;99.90;;;;;;4928825;28;20035;-84
2022/01/14 04:43:02;;;;;;;51.58;22.27;;;-0.40;99.90;;;;;;4941340;28;20055;-84
2022/01/14 04:48:06;;;;;;;44.28;21.05;;;-0.40;99.90;;;;;;4935922;28;20039;-84
2022/01/14 04:50:32;;;;;;;43.80;21.65;;;-0.10;99.90;;;;;;4916908;28;20103;-84
2022/01/14 04:52:57;;;;;;;48.65;21.88;;;0.00;99.90;;;;;;4919747;28;20038;-84
2022/01/14 04:55:24;;;;;;;51.67;21.63;;;0.00;99.90;;;;;;4946106;28;20085;-84
2022/01/14 04:57:50;;;;;;;37.22;17.67;;;-0.10;99.90;;;;;;4930182;28;20117;-85
2022/01/14 05:00:17;;;;;;;54.10;23.25;;;-0.10;99.90;;;;;;4958433;28;20126;-85
2022/01/14 05:02:43;;;;;;;50.42;21.48;;;-0.20;99.90;;;;;;4926899;28;20483;-85
2022/01/14 05:05:08;;;;;;;52.55;22.63;;;-0.20;99.90;;;;;;4938881;28;20089;-84
2022/01/14 05:07:34;;;;;;;54.92;21.80;;;-0.30;99.90;;;;;;4931987;28;20031;-84
2022/01/14 05:12:35;;;;;;;50.72;23.42;;;-0.30;99.90;;;;;;4947321;28;20046;-84
2022/01/14 05:15:02;;;;;;;49.28;20.33;;;-0.30;99.90;;;;;;4945833;28;20163;-84
2022/01/14 05:17:27;;;;;;;45.33;20.00;;;-0.30;99.90;;;;;;4932449;28;20065;-85
2022/01/14 05:19:54;;;;;;;41.28;20.67;;;-0.20;99.90;;;;;;4927310;28;20038;-85
2022/01/14 05:22:21;;;;;;;39.53;17.60;;;-0.30;99.90;;;;;;4914400;28;20117;-84
2022/01/14 05:24:46;;;;;;;45.67;20.90;;;-0.20;99.90;;;;;;4934328;28;20343;-84
2022/01/14 05:27:12;;;;;;;42.88;19.55;;;-0.30;99.90;;;;;;4933762;28;20110;-84
2022/01/14 05:29:37;;;;;;;36.40;16.85;;;-0.20;99.90;;;;;;4939970;28;20047;-84
2022/01/14 05:32:05;;;;;;;41.08;19.83;;;-0.30;99.90;;;;;;4945066;28;20034;-84
2022/01/14 05:34:31;;;;;;;42.78;19.63;;;-0.20;99.90;;;;;;4915298;28;20036;-84
2022/01/14 05:36:57;;;;;;;40.25;20.27;;;-0.20;99.90;;;;;;4924045;28;20035;-84
2022/01/14 05:39:23;;;;;;;37.22;18.20;;;0.00;99.90;;;;;;4933640;28;20818;-84
2022/01/14 05:41:49;;;;;;;28.52;14.10;;;-0.10;99.90;;;;;;4938391;28;20019;-85
2022/01/14 05:44:15;;;;;;;34.53;17.25;;;-0.20;99.90;;;;;;4928575;28;20032;-83
2022/01/14 05:46:40;;;;;;;34.00;15.93;;;0.00;99.90;;;;;;4959136;28;20054;-83
2022/01/14 05:49:06;;;;;;;36.28;16.13;;;0.10;99.90;;;;;;4932600;28;20059;-83
2022/01/14 05:51:33;;;;;;;36.03;18.25;;;0.10;99.90;;;;;;4931954;28;20035;-83
2022/01/14 05:53:58;;;;;;;27.50;13.98;;;0.00;99.90;;;;;;4944544;28;20112;-83
2022/01/14 05:56:24;;;;;;;35.10;15.48;;;0.00;99.90;;;;;;4931116;29;20052;-87
2022/01/14 05:58:49;;;;;;;30.63;16.13;;;0.00;99.90;;;;;;4906756;28;20027;-86
2022/01/14 06:01:15;;;;;;;29.67;14.48;;;-0.10;99.90;;;;;;4913676;28;20027;-87
2022/01/14 06:03:43;;;;;;;37.08;19.60;;;-0.10;99.90;;;;;;4941594;28;20031;-87
2022/01/14 06:06:09;;;;;;;45.65;20.35;;;-0.20;99.90;;;;;;4938852;28;20054;-88
2022/01/14 06:08:34;;;;;;;31.80;16.20;;;-0.40;99.90;;;;;;4913816;28;20077;-88
2022/01/14 06:11:00;;;;;;;33.05;15.57;;;-0.30;99.90;;;;;;4958007;28;20039;-88
2022/01/14 06:13:25;;;;;;;38.67;18.52;;;-0.30;99.90;;;;;;4932433;28;20062;-88
2022/01/14 06:15:51;;;;;;;34.38;15.63;;;-0.30;99.90;;;;;;4914629;28;20065;-89
2022/01/14 06:18:16;;;;;;;48.78;21.75;;;-0.10;99.90;;;;;;4919061;28;20047;-89
2022/01/14 06:20:43;;;;;;;44.88;22.02;;;-0.10;99.90;;;;;;4926588;28;20039;-88
2022/01/14 06:23:09;;;;;;;47.70;23.42;;;-0.30;99.90;;;;;;4929006;28;20110;-88
2022/01/14 06:25:34;;;;;;;53.67;23.58;;;-0.50;99.90;;;;;;4926092;28;20122;-89
2022/01/14 06:28:00;;;;;;;46.50;22.55;;;-0.50;99.90;;;;;;4926947;28;20065;-88
2022/01/14 06:30:25;;;;;;;66.82;23.88;;;-0.70;99.90;;;;;;4924571;28;20093;-89
2022/01/14 06:33:45;;;;;;;;;;;;;;;;;;;;;
2022/01/14 06:36:50;;;;;;;30.20;16.23;;;-0.60;99.90;;;;;;4865730;28;20866;-87
2022/01/14 06:39:18;;;;;;;43.15;20.58;;;-0.50;99.90;;;;;;4910307;28;20122;-89
2022/01/14 06:41:57;;;;;;;43.30;21.70;;;-0.40;99.90;;;;;;4914325;29;20039;-88
2022/01/14 06:44:23;;;;;;;46.35;21.30;;;-0.50;99.90;;;;;;4917364;28;20403;-88
2022/01/14 06:46:52;;;;;;;46.53;21.63;;;-0.60;99.90;;;;;;4912085;28;20031;-88
2022/01/14 06:49:17;;;;;;;43.40;21.15;;;-0.60;99.90;;;;;;4914628;28;20031;-89
2022/01/14 06:51:43;;;;;;;51.47;22.15;;;-0.40;99.90;;;;;;4903604;29;20043;-88
2022/01/14 06:54:09;;;;;;;40.13;18.35;;;-0.50;99.90;;;;;;4915267;28;20581;-89
2022/01/14 06:56:34;;;;;;;35.58;16.50;;;-0.50;99.90;;;;;;4929293;28;20027;-86
2022/01/14 06:59:00;;;;;;;38.63;19.98;;;-0.40;99.90;;;;;;4929418;28;20047;-88
2022/01/14 07:01:33;;;;;;;50.67;21.73;;;-0.40;99.90;;;;;;4930262;28;20476;-90
2022/01/14 07:04:01;;;;;;;52.25;22.25;;;-0.50;99.90;;;;;;4919605;28;20088;-88
2022/01/14 07:06:27;;;;;;;42.60;21.10;;;-0.40;99.90;;;;;;4938574;29;20039;-85
2022/01/14 07:08:53;;;;;;;46.55;20.98;;;-0.40;99.90;;;;;;4930153;28;20518;-85
2022/01/14 07:11:19;;;;;;;38.35;17.75;;;-0.40;99.90;;;;;;4927408;28;20407;-84
2022/01/14 07:13:47;;;;;;;30.73;13.23;;;-0.50;99.90;;;;;;4930332;28;20619;-85
2022/01/14 07:16:13;;;;;;;24.50;11.88;;;-0.30;99.90;;;;;;4935742;28;20515;-85
2022/01/14 07:18:38;;;;;;;38.90;19.48;;;-0.20;99.90;;;;;;4928062;28;20035;-85
2022/01/14 07:21:04;;;;;;;38.20;18.88;;;-0.20;99.90;;;;;;4944590;28;20035;-85
2022/01/14 07:23:30;;;;;;;32.03;16.27;;;-0.20;99.90;;;;;;4925732;28;20031;-85
2022/01/14 07:25:55;;;;;;;31.95;15.73;;;-0.20;99.90;;;;;;4929982;28;20637;-85
2022/01/14 07:28:21;;;;;;;26.80;14.15;;;-0.30;99.90;;;;;;4955873;28;20059;-84
2022/01/14 07:30:46;;;;;;;38.88;19.33;;;-0.40;99.90;;;;;;4938071;28;20023;-84
2022/01/14 07:33:13;;;;;;;33.65;16.15;;;-0.20;99.90;;;;;;4930653;28;20039;-84
2022/01/14 07:35:40;;;;;;;20.52;10.85;;;-0.40;99.90;;;;;;4929059;28;20038;-85
2022/01/14 07:38:05;;;;;;;32.65;16.33;;;-0.30;99.90;;;;;;4932183;28;20067;-84
2022/01/14 07:40:31;;;;;;;32.78;14.48;;;-0.30;99.90;;;;;;4939287;28;20118;-84
2022/01/14 07:42:56;;;;;;;37.88;17.35;;;-0.20;99.90;;;;;;4941243;28;20050;-84
2022/01/14 07:45:22;;;;;;;21.75;10.68;;;-0.20;99.90;;;;;;4928431;28;20062;-84
2022/01/14 07:47:47;;;;;;;46.80;21.17;;;-0.20;99.90;;;;;;4921588;29;20035;-85
2022/01/14 07:50:13;;;;;;;33.92;15.18;;;-0.10;99.90;;;;;;4925207;28;20042;-84
2022/01/14 07:52:39;;;;;;;57.10;25.70;;;-0.10;99.90;;;;;;4924797;28;20046;-84
2022/01/14 07:55:05;;;;;;;60.70;22.95;;;0.00;99.90;;;;;;4941813;28;20039;-84
2022/01/14 07:57:31;;;;;;;32.67;14.75;;;0.10;99.90;;;;;;4929016;28;20030;-84
2022/01/14 07:59:56;;;;;;;26.02;12.85;;;0.10;99.90;;;;;;4934097;28;20078;-84
2022/01/14 08:02:22;;;;;;;74.45;26.20;;;0.20;99.90;;;;;;4944369;28;20063;-85
2022/01/14 08:04:48;;;;;;;13.18;6.05;;;0.20;99.90;;;;;;4923379;28;20054;-85
2022/01/14 08:07:17;;;;;;;49.03;17.23;;;0.20;99.90;;;;;;4945290;28;20118;-85
2022/01/14 08:09:45;;;;;;;37.35;15.90;;;0.20;99.90;;;;;;4927343;28;20127;-84
2022/01/14 08:12:12;;;;;;;43.08;17.58;;;0.20;99.90;;;;;;4957490;28;20807;-85
2022/01/14 08:14:38;;;;;;;12.55;6.22;;;0.30;99.90;;;;;;4936289;28;20034;-84
2022/01/14 08:17:04;;;;;;;28.75;12.07;;;0.40;99.90;;;;;;4918233;28;20070;-85
2022/01/14 08:19:33;;;;;;;57.53;21.67;;;0.40;99.90;;;;;;4916151;28;20031;-85
2022/01/14 08:22:05;;;;;;;60.05;20.73;;;0.50;99.90;;;;;;4929525;28;21601;-84
2022/01/14 08:24:30;;;;;;;38.40;15.90;;;0.60;99.90;;;;;;4947776;28;20061;-84
2022/01/14 08:26:56;;;;;;;44.58;20.40;;;0.60;99.90;;;;;;4933567;28;20487;-84
2022/01/14 08:29:22;;;;;;;55.33;23.55;;;0.60;99.90;;;;;;4929348;28;20027;-87
2022/01/14 08:31:47;;;;;;;50.33;18.05;;;0.60;99.90;;;;;;4932330;28;20054;-84
2022/01/14 08:34:13;;;;;;;62.80;24.70;;;0.60;99.90;;;;;;4948146;28;20031;-84
2022/01/14 08:36:38;;;;;;;27.77;12.38;;;0.70;99.90;;;;;;4948245;28;20027;-85
2022/01/14 08:39:04;;;;;;;75.78;27.58;;;0.70;99.90;;;;;;4927671;28;20071;-85
2022/01/14 08:41:30;;;;;;;66.10;24.75;;;0.70;99.90;;;;;;4917819;28;20055;-85
2022/01/14 08:43:59;;;;;;;16.98;7.07;;;0.70;99.90;;;;;;4917805;28;20031;-85
2022/01/14 08:46:26;;;;;;;27.13;9.50;;;0.80;99.90;;;;;;4943406;28;20038;-85
2022/01/14 08:48:52;;;;;;;52.70;20.13;;;0.80;99.90;;;;;;4931916;28;20070;-85
2022/01/14 08:51:18;;;;;;;20.00;8.95;;;0.80;99.90;;;;;;4933484;28;20038;-85
2022/01/14 08:53:43;;;;;;;84.90;28.42;;;0.90;99.90;;;;;;4933550;28;20117;-85
2022/01/14 08:56:09;;;;;;;66.22;22.45;;;0.80;99.90;;;;;;4934653;28;20072;-85
2022/01/14 08:58:34;;;;;;;51.70;18.13;;;0.90;99.90;;;;;;4918049;28;20036;-85
2022/01/14 09:01:00;;;;;;;68.22;26.45;;;1.00;99.90;;;;;;4932170;28;20101;-85
2022/01/14 09:03:27;;;;;;;40.63;17.67;;;1.00;99.90;;;;;;4932844;28;20470;-85
2022/01/14 09:05:57;;;;;;;15.90;8.02;;;1.00;99.90;;;;;;4929536;28;20035;-85
2022/01/14 09:08:22;;;;;;;56.38;19.65;;;1.20;99.90;;;;;;4930167;28;20039;-85
2022/01/14 09:10:48;;;;;;;52.78;17.30;;;1.20;99.90;;;;;;4929634;28;20054;-85
2022/01/14 09:13:13;;;;;;;113.38;30.77;;;1.10;99.90;;;;;;4939177;28;20058;-85
2022/01/14 09:15:39;;;;;;;79.95;27.45;;;1.10;99.90;;;;;;4929245;28;20042;-85
2022/01/14 09:18:05;;;;;;;102.57;34.15;;;1.20;99.90;;;;;;4938842;28;20099;-84
2022/01/14 09:20:31;;;;;;;137.13;37.42;;;1.20;99.90;;;;;;4909430;28;20536;-85
2022/01/14 09:23:03;;;;;;;140.10;34.13;;;1.30;99.90;;;;;;4913901;28;20491;-85
2022/01/14 09:25:28;;;;;;;106.93;33.75;;;1.20;99.90;;;;;;4939666;28;20773;-85
2022/01/14 09:27:54;;;;;;;131.63;38.45;;;1.30;99.90;;;;;;4928055;28;20038;-85
2022/01/14 09:30:23;;;;;;;438.27;45.65;;;1.30;99.90;;;;;;4924827;28;20433;-85
2022/01/14 09:32:49;;;;;;;167.70;39.83;;;1.30;99.90;;;;;;4942671;28;20455;-85
2022/01/14 09:35:15;;;;;;;61.25;21.25;;;1.40;99.90;;;;;;4917679;28;20039;-84
2022/01/14 09:37:41;;;;;;;182.45;34.30;;;1.40;99.90;;;;;;4902939;28;20816;-85
2022/01/14 09:40:07;;;;;;;119.55;31.85;;;1.50;99.90;;;;;;4908961;28;20031;-85
2022/01/14 09:42:33;;;;;;;59.70;22.75;;;1.50;99.90;;;;;;4931803;28;20031;-85
2022/01/14 09:44:58;;;;;;;71.15;23.73;;;1.50;99.90;;;;;;4926366;28;20035;-85
2022/01/14 09:47:27;;;;;;;58.75;21.10;;;1.60;99.90;;;;;;4932854;28;20507;-85
2022/01/14 09:49:53;;;;;;;98.65;26.45;;;1.60;99.90;;;;;;4916980;29;20032;-84
2022/01/14 09:52:18;;;;;;;53.33;20.65;;;1.60;99.90;;;;;;4902624;28;20042;-85
2022/01/14 09:54:45;;;;;;;51.85;21.50;;;1.60;99.90;;;;;;4901733;29;20035;-85
2022/01/14 09:57:12;;;;;;;59.78;22.60;;;1.70;99.90;;;;;;4918667;29;20107;-85
2022/01/14 09:59:42;;;;;;;123.95;29.20;;;1.70;99.90;;;;;;4925598;28;20511;-85
2022/01/14 10:02:08;;;;;;;81.47;27.25;;;1.80;99.90;;;;;;4914441;28;20054;-85
2022/01/14 10:04:35;;;;;;;56.80;21.75;;;1.80;99.90;;;;;;4903541;28;20364;-85
2022/01/14 10:07:01;;;;;;;57.20;22.20;;;1.80;99.90;;;;;;4937752;28;20098;-85
2022/01/14 10:10:01;;;;;;;80.32;24.35;;;1.90;99.90;;;;;;4927220;28;20918;-85
2022/01/14 10:12:31;;;;;;;72.10;25.27;;;1.90;99.90;;;;;;4905565;28;20565;-85
2022/01/14 10:15:00;;;;;;;102.72;29.63;;;1.80;99.90;;;;;;4905526;28;20492;-85
2022/01/14 10:17:35;;;;;;;74.88;25.75;;;1.90;99.90;;;;;;4925881;28;20035;-85
2022/01/14 10:20:01;;;;;;;69.20;25.15;;;1.90;99.90;;;;;;4923353;28;20039;-85
2022/01/14 10:22:34;;;;;;;79.00;26.23;;;2.00;99.90;;;;;;4929026;28;20046;-85
2022/01/14 10:25:07;;;;;;;67.80;23.40;;;2.00;99.90;;;;;;4898142;29;20042;-85
2022/01/14 10:27:35;;;;;;;121.50;28.67;;;2.00;99.90;;;;;;4907093;28;20130;-85
2022/01/14 10:30:20;;;;;;;60.35;20.48;;;2.20;99.90;;;;;;4928140;28;20118;-85
2022/01/14 10:33:08;;;;;;;55.47;21.95;;;2.10;99.90;;;;;;4913556;28;20070;-85
2022/01/14 10:35:41;;;;;;;98.38;27.40;;;2.10;99.90;;;;;;4904435;28;20035;-85
2022/01/14 10:38:10;;;;;;;57.47;20.77;;;2.20;99.90;;;;;;4900648;28;20039;-84
2022/01/14 10:40:44;;;;;;;76.80;24.10;;;2.20;99.90;;;;;;4924804;28;20046;-85
2022/01/14 10:43:11;;;;;;;107.97;26.80;;;2.20;99.90;;;;;;4946126;28;20086;-84
2022/01/14 10:45:36;;;;;;;132.02;30.83;;;2.30;99.90;;;;;;4918134;29;20075;-85
2022/01/14 10:48:06;;;;;;;108.28;27.05;;;2.30;99.90;;;;;;4917029;28;20594;-85
2022/01/14 10:50:36;;;;;;;64.28;21.85;;;2.30;99.90;;;;;;4928798;28;20039;-85
2022/01/14 10:53:07;;;;;;;73.15;23.92;;;2.40;99.90;;;;;;4930063;28;20575;-85
2022/01/14 10:55:35;;;;;;;61.95;22.85;;;2.40;99.90;;;;;;4921604;28;20106;-85
2022/01/14 10:58:04;;;;;;;85.90;23.73;;;2.50;99.90;;;;;;4918146;29;20038;-86
2022/01/14 11:00:42;;;;;;;187.43;30.52;;;2.50;99.90;;;;;;4931328;28;20042;-86
2022/01/14 11:03:08;;;;;;;63.85;22.95;;;2.50;99.90;;;;;;4928768;28;20514;-85
2022/01/14 11:05:35;;;;;;;68.47;25.15;;;2.60;99.90;;;;;;4930730;28;20035;-86
2022/01/14 11:08:00;;;;;;;51.17;19.80;;;2.60;99.90;;;;;;4941700;28;20510;-86
2022/01/14 11:10:28;;;;;;;116.68;28.33;;;2.60;99.90;;;;;;4931544;28;20034;-86
2022/01/14 11:12:55;;;;;;;123.82;28.27;;;2.70;99.90;;;;;;4930249;28;20043;-86
2022/01/14 11:15:23;;;;;;;86.65;23.92;;;2.80;99.90;;;;;;4943699;28;20495;-86
2022/01/14 11:17:52;;;;;;;123.72;28.50;;;2.90;99.90;;;;;;4922440;28;20546;-86
2022/01/14 11:20:30;;;;;;;73.43;23.35;;;2.90;99.90;;;;;;4894367;28;20042;-86
2022/01/14 11:26:00;;;;;;;68.95;22.98;;;2.80;99.90;;;;;;4927360;28;20042;-86
2022/01/14 11:28:34;;;;;;;60.92;21.95;;;2.90;99.90;;;;;;4901218;29;20043;-86
2022/01/14 11:31:22;;;;;;;58.05;20.67;;;2.90;99.90;;;;;;4892029;28;20076;-86
2022/01/14 11:33:48;;;;;;;75.13;24.55;;;2.90;99.90;;;;;;4901213;29;20032;-88
2022/01/14 11:36:13;;;;;;;87.90;28.60;;;3.00;99.90;;;;;;4928441;28;20026;-86
2022/01/14 11:38:48;;;;;;;67.32;23.30;;;3.00;99.90;;;;;;4932190;28;20039;-86
2022/01/14 11:41:19;;;;;;;61.45;20.98;;;3.10;99.90;;;;;;4931979;28;20074;-88
2022/01/14 11:43:50;;;;;;;65.55;22.58;;;3.10;99.90;;;;;;4919052;28;20559;-89
2022/01/14 11:46:31;;;;;;;66.93;22.63;;;3.20;99.90;;;;;;4915878;28;20110;-86
2022/01/14 11:49:01;;;;;;;81.35;27.58;;;3.30;99.90;;;;;;4939384;28;20031;-86
2022/01/14 11:51:26;;;;;;;68.03;23.83;;;3.30;99.90;;;;;;4922740;28;20498;-88
2022/01/14 11:54:10;;;;;;;58.45;22.63;;;3.30;99.90;;;;;;4901707;28;20043;-89
2022/01/14 11:56:45;;;;;;;57.35;20.88;;;3.30;99.90;;;;;;4908965;28;20038;-88
2022/01/14 11:59:22;;;;;;;70.33;24.93;;;3.30;99.90;;;;;;4934577;28;20035;-89
2022/01/14 12:01:48;;;;;;;58.83;22.27;;;3.30;99.90;;;;;;4946233;28;20039;-86
2022/01/14 12:04:14;;;;;;;76.18;26.83;;;3.30;99.90;;;;;;4932538;28;20400;-86
2022/01/14 12:06:57;;;;;;;60.13;21.92;;;3.40;99.90;;;;;;4921206;28;20039;-88
2022/01/14 12:09:24;;;;;;;61.67;22.48;;;3.40;99.90;;;;;;4919330;28;20851;-88
2022/01/14 12:12:30;;;;;;;50.50;19.27;;;3.50;99.90;;;;;;4930302;28;20038;-88
2022/01/14 12:14:57;;;;;;;60.30;22.55;;;3.40;99.90;;;;;;4929125;28;20526;-88
2022/01/14 12:17:39;;;;;;;74.25;27.35;;;3.50;99.90;;;;;;4926025;28;20035;-88
2022/01/14 12:20:17;;;;;;;71.80;25.77;;;3.60;99.90;;;;;;4943516;28;20055;-88
2022/01/14 12:23:09;;;;;;;85.93;26.95;;;3.60;99.90;;;;;;4915381;28;20037;-90
2022/01/14 12:25:44;;;;;;;59.58;21.65;;;3.70;99.90;;;;;;4932865;28;20705;-90
2022/01/14 12:28:29;;;;;;;75.32;25.38;;;3.60;99.90;;;;;;4943496;28;20082;-90
2022/01/14 12:31:04;;;;;;;55.22;21.73;;;3.60;99.90;;;;;;4907859;28;20583;-90
2022/01/14 12:33:51;;;;;;;62.20;22.25;;;3.60;99.90;;;;;;4889224;29;20436;-90
2022/01/14 12:36:56;;;;;;;66.55;21.08;;;3.50;99.90;;;;;;4867052;29;20054;-90
2022/01/14 12:39:48;;;;;;;71.25;24.75;;;3.70;99.90;;;;;;4580259;28;10001321;-90
2022/01/14 12:43:03;;;;;;;61.78;24.17;;;3.70;99.90;;;;;;4899894;28;20031;-89
2022/01/14 12:45:35;;;;;;;57.47;20.52;;;3.70;99.90;;;;;;4928350;28;20039;-89
2022/01/14 12:48:21;;;;;;;63.42;23.92;;;3.60;99.90;;;;;;4916917;28;20035;-89
2022/01/14 12:50:47;;;;;;;67.20;24.45;;;3.70;99.90;;;;;;4888676;28;20038;-89
2022/01/14 12:53:53;;;;;;;70.38;26.02;;;3.70;99.90;;;;;;4920217;28;20790;-89
2022/01/14 12:56:20;;;;;;;70.55;25.08;;;3.90;99.90;;;;;;4933024;28;20034;-88
2022/01/14 12:59:10;;;;;;;63.10;22.23;;;3.90;99.90;;;;;;4927798;28;20031;-87
2022/01/14 13:01:44;;;;;;;69.72;25.05;;;3.80;99.90;;;;;;4944695;28;20039;-87
2022/01/14 13:04:30;;;;;;;62.45;24.73;;;3.90;99.90;;;;;;4937582;28;20043;-87
2022/01/14 13:07:02;;;;;;;76.15;26.58;;;4.00;99.90;;;;;;4884462;28;20524;-87
2022/01/14 13:09:38;;;;;;;60.25;24.33;;;3.90;99.90;;;;;;4930034;28;20031;-88
2022/01/14 13:12:10;;;;;;;73.05;26.08;;;4.00;99.90;;;;;;4928929;28;20043;-87
2022/01/14 13:14:51;;;;;;;72.63;27.75;;;4.00;99.90;;;;;;4916322;28;20038;-88
2022/01/14 13:17:29;;;;;;;49.72;19.98;;;4.00;99.90;;;;;;4884891;29;20031;-88